Time;durP1;ratioP1;P1;durP2;ratioP2;P2;SDS_P1;SDS_P2;PMS_P1;PMS_P2;Temp;Humidity;BMP_temperature;BMP_pressure;BME280_temperature;BME280_humidity;BME280_pressure;Samples;Min_cycle;Max_cycle;Signal;HPM_P1;HPM_P2
2023/10/13 00:00:40;;;;;;;25.80;18.10;;;15.90;99.90;;;;;;4935083;28;20057;-71
2023/10/13 00:03:15;;;;;;;26.52;17.60;;;15.90;99.90;;;;;;4928166;28;20051;-70
2023/10/13 00:05:43;;;;;;;22.80;16.98;;;15.90;99.90;;;;;;4917338;28;20043;-71
2023/10/13 00:08:10;;;;;;;27.80;17.92;;;15.90;99.90;;;;;;4935776;28;20174;-69
2023/10/13 00:10:37;;;;;;;26.23;17.45;;;15.90;99.90;;;;;;4931885;28;20061;-71
2023/10/13 00:15:38;;;;;;;25.80;17.88;;;15.90;99.90;;;;;;4919673;29;20055;-70
2023/10/13 00:18:12;;;;;;;22.15;16.92;;;15.90;99.90;;;;;;4914852;28;20074;-70
2023/10/13 00:20:49;;;;;;;24.85;18.17;;;15.90;99.90;;;;;;4897981;29;20052;-71
2023/10/13 00:23:20;;;;;;;30.27;20.20;;;15.90;99.90;;;;;;4933972;28;20051;-71
2023/10/13 00:25:56;;;;;;;26.13;18.27;;;15.90;99.90;;;;;;4931874;28;20054;-71
2023/10/13 00:28:35;;;;;;;30.73;20.00;;;15.90;99.90;;;;;;4932456;28;20755;-70
2023/10/13 00:31:10;;;;;;;25.50;19.73;;;15.90;99.90;;;;;;4930708;28;20055;-70
2023/10/13 00:33:38;;;;;;;26.85;18.58;;;15.90;99.90;;;;;;4920468;29;20067;-71
2023/10/13 00:36:07;;;;;;;26.02;19.63;;;15.90;99.90;;;;;;4912666;28;20114;-70
2023/10/13 00:38:37;;;;;;;28.38;20.42;;;16.00;99.90;;;;;;4937364;28;20058;-70
2023/10/13 00:41:15;;;;;;;29.00;19.85;;;16.00;99.90;;;;;;4907301;28;20047;-71
2023/10/13 00:44:04;;;;;;;24.20;19.90;;;16.00;99.90;;;;;;4918547;29;20074;-70
2023/10/13 00:46:35;;;;;;;29.27;21.17;;;16.00;99.90;;;;;;4930643;28;20058;-71
2023/10/13 00:49:05;;;;;;;29.27;21.35;;;16.00;99.90;;;;;;4935080;28;20074;-71
2023/10/13 00:51:34;;;;;;;29.83;20.23;;;16.00;99.90;;;;;;4917854;29;20051;-70
2023/10/13 00:54:07;;;;;;;28.48;19.90;;;16.10;99.90;;;;;;4930840;28;20051;-69
2023/10/13 00:56:40;;;;;;;29.75;21.30;;;16.00;99.90;;;;;;4918199;29;20043;-71
2023/10/13 00:59:09;;;;;;;28.10;20.55;;;16.00;99.90;;;;;;4917208;28;20050;-71
2023/10/13 01:01:36;;;;;;;26.23;20.65;;;16.00;99.90;;;;;;4934803;28;20505;-70
2023/10/13 01:04:08;;;;;;;27.70;20.85;;;16.00;99.90;;;;;;4918144;28;20067;-70
2023/10/13 01:06:37;;;;;;;28.10;19.77;;;16.00;99.90;;;;;;4919488;29;20047;-72
2023/10/13 01:09:13;;;;;;;28.00;21.77;;;16.00;99.90;;;;;;4898550;28;20047;-71
2023/10/13 01:11:43;;;;;;;29.85;21.92;;;16.10;99.90;;;;;;4932500;28;20047;-72
2023/10/13 01:14:18;;;;;;;27.55;21.65;;;16.10;99.90;;;;;;4915800;28;20132;-71
2023/10/13 01:16:46;;;;;;;27.98;21.85;;;16.00;99.90;;;;;;4933379;28;20505;-71
2023/10/13 01:19:18;;;;;;;28.73;19.90;;;16.10;99.90;;;;;;4930343;28;20106;-71
2023/10/13 01:21:48;;;;;;;28.75;21.67;;;16.10;99.90;;;;;;4931508;28;20755;-71
2023/10/13 01:24:17;;;;;;;25.75;21.30;;;16.10;99.90;;;;;;4914961;28;20066;-71
2023/10/13 01:26:44;;;;;;;28.70;20.60;;;16.10;99.90;;;;;;4931154;28;20055;-72
2023/10/13 01:29:14;;;;;;;30.58;22.13;;;16.10;99.90;;;;;;4928660;28;20047;-72
2023/10/13 01:31:46;;;;;;;27.27;22.05;;;16.10;99.90;;;;;;4931997;28;20051;-71
2023/10/13 01:34:21;;;;;;;26.30;22.63;;;16.10;99.90;;;;;;4929255;28;20040;-69
2023/10/13 01:36:54;;;;;;;24.95;21.42;;;16.00;99.90;;;;;;4912502;28;20066;-71
2023/10/13 01:39:26;;;;;;;26.80;21.50;;;16.10;99.90;;;;;;4914669;28;20051;-70
2023/10/13 01:41:56;;;;;;;38.72;22.80;;;16.00;99.90;;;;;;4915552;28;20054;-70
2023/10/13 01:44:30;;;;;;;26.10;21.88;;;16.10;99.90;;;;;;4930882;28;20166;-70
2023/10/13 01:47:07;;;;;;;29.08;21.33;;;16.10;99.90;;;;;;4928945;28;20047;-71
2023/10/13 01:49:46;;;;;;;29.52;22.08;;;16.20;99.90;;;;;;4918142;29;20051;-70
2023/10/13 01:52:17;;;;;;;25.02;22.33;;;16.20;99.90;;;;;;4914398;28;20047;-70
2023/10/13 01:54:50;;;;;;;27.88;22.38;;;16.20;99.90;;;;;;4916626;28;20054;-70
2023/10/13 01:57:17;;;;;;;27.02;21.52;;;16.20;99.90;;;;;;4925408;28;20062;-70
2023/10/13 01:59:47;;;;;;;25.52;22.80;;;16.30;99.90;;;;;;4916536;28;20047;-69
2023/10/13 02:02:27;;;;;;;31.20;22.15;;;16.30;99.90;;;;;;4930255;28;20597;-70
2023/10/13 02:05:00;;;;;;;28.40;21.67;;;16.30;99.90;;;;;;4899265;28;20055;-70
2023/10/13 02:07:34;;;;;;;25.65;19.50;;;16.30;99.90;;;;;;4933680;28;20048;-71
2023/10/13 02:10:11;;;;;;;26.45;21.15;;;16.30;99.90;;;;;;4904317;28;20134;-70
2023/10/13 02:12:45;;;;;;;24.50;20.27;;;16.30;99.90;;;;;;4916495;29;20041;-70
2023/10/13 02:15:21;;;;;;;24.08;21.48;;;16.30;99.90;;;;;;4896889;28;20486;-71
2023/10/13 02:17:51;;;;;;;26.95;21.00;;;16.30;99.90;;;;;;4934382;28;20044;-71
2023/10/13 02:20:22;;;;;;;28.15;20.50;;;16.40;99.90;;;;;;4928608;28;20047;-69
2023/10/13 02:22:49;;;;;;;25.58;20.55;;;16.30;99.90;;;;;;4915906;28;20044;-70
2023/10/13 02:25:34;;;;;;;24.30;20.13;;;16.40;99.90;;;;;;4930850;28;20062;-70
2023/10/13 02:28:02;;;;;;;24.83;21.42;;;16.40;99.90;;;;;;4916243;28;20043;-69
2023/10/13 02:30:29;;;;;;;28.67;21.15;;;16.40;99.90;;;;;;4931023;28;20418;-70
2023/10/13 02:32:57;;;;;;;23.30;20.55;;;16.50;99.90;;;;;;4919786;28;20649;-71
2023/10/13 02:35:41;;;;;;;24.73;20.60;;;16.50;99.90;;;;;;4905077;28;20680;-70
2023/10/13 02:38:11;;;;;;;24.08;20.10;;;16.50;99.90;;;;;;4915509;28;20065;-71
2023/10/13 02:40:38;;;;;;;27.15;23.25;;;16.50;99.90;;;;;;4917075;29;20597;-69
2023/10/13 02:43:06;;;;;;;27.02;22.65;;;16.40;99.90;;;;;;4920111;28;20043;-71
2023/10/13 02:45:36;;;;;;;25.60;22.35;;;16.50;99.90;;;;;;4919208;29;20046;-70
2023/10/13 02:48:17;;;;;;;27.40;21.98;;;16.40;99.90;;;;;;4916645;28;20109;-69
2023/10/13 02:50:45;;;;;;;28.00;22.75;;;16.30;99.90;;;;;;4935176;28;20077;-69
2023/10/13 02:53:12;;;;;;;32.03;23.38;;;16.30;99.90;;;;;;4916632;28;20142;-71
2023/10/13 02:55:52;;;;;;;27.90;23.10;;;16.30;99.90;;;;;;4919461;28;20078;-71
2023/10/13 02:58:20;;;;;;;26.40;21.20;;;16.20;99.90;;;;;;4932898;28;20672;-70
2023/10/13 03:00:47;;;;;;;28.58;22.80;;;16.30;99.90;;;;;;4935403;28;20054;-70
2023/10/13 03:03:18;;;;;;;25.92;21.10;;;16.20;99.90;;;;;;4931138;28;20044;-70
2023/10/13 03:05:45;;;;;;;23.02;19.70;;;16.30;99.90;;;;;;4934774;28;20055;-71
2023/10/13 03:08:17;;;;;;;23.08;18.45;;;16.20;99.90;;;;;;4915749;28;20474;-70
2023/10/13 03:10:48;;;;;;;25.77;19.20;;;16.30;99.90;;;;;;4915364;28;20043;-69
2023/10/13 03:13:15;;;;;;;26.67;20.63;;;16.30;99.90;;;;;;4931842;28;20039;-71
2023/10/13 03:15:47;;;;;;;24.55;17.80;;;16.30;99.90;;;;;;4921960;29;20039;-70
2023/10/13 03:18:18;;;;;;;26.90;19.50;;;16.30;99.90;;;;;;4932520;28;20669;-70
2023/10/13 03:20:50;;;;;;;24.88;20.48;;;16.40;99.90;;;;;;4917550;28;20047;-70
2023/10/13 03:23:16;;;;;;;22.83;19.65;;;16.40;99.90;;;;;;4919343;28;20058;-71
2023/10/13 03:25:43;;;;;;;23.48;19.10;;;16.40;99.90;;;;;;4939473;28;20058;-72
2023/10/13 03:28:13;;;;;;;24.20;20.05;;;16.40;99.90;;;;;;4933301;28;20657;-70
2023/10/13 03:30:43;;;;;;;25.67;19.67;;;16.40;99.90;;;;;;4921807;29;20442;-70
2023/10/13 03:33:25;;;;;;;22.50;17.98;;;16.40;99.90;;;;;;4917352;28;20682;-69
2023/10/13 03:35:59;;;;;;;24.27;18.77;;;16.40;99.90;;;;;;4935951;28;20075;-70
2023/10/13 03:38:27;;;;;;;22.65;18.23;;;16.40;99.90;;;;;;4932153;28;20624;-71
2023/10/13 03:41:07;;;;;;;20.50;17.42;;;16.40;99.90;;;;;;4914821;28;20065;-72
2023/10/13 03:43:45;;;;;;;24.27;18.23;;;16.40;99.90;;;;;;4932715;28;20449;-72
2023/10/13 03:46:12;;;;;;;21.33;18.27;;;16.40;99.90;;;;;;4912731;28;20066;-71
2023/10/13 03:48:52;;;;;;;21.75;17.70;;;16.40;99.90;;;;;;4934730;28;20047;-71
2023/10/13 03:51:19;;;;;;;25.33;17.25;;;16.40;99.90;;;;;;4909276;28;20113;-71
2023/10/13 03:53:52;;;;;;;24.63;18.52;;;16.40;99.90;;;;;;4934496;28;20051;-72
2023/10/13 03:56:27;;;;;;;32.80;17.90;;;16.40;99.90;;;;;;4929059;28;20046;-71
2023/10/13 03:59:04;;;;;;;22.15;19.17;;;16.40;99.90;;;;;;4935750;28;20051;-70
2023/10/13 04:04:12;;;;;;;23.35;19.00;;;16.40;99.90;;;;;;4931761;28;20564;-70
2023/10/13 04:17:28;;;;;;;21.48;16.40;;;16.40;99.90;;;;;;4930774;28;20743;-71
2023/10/13 04:33:35;;;;;;;27.15;17.63;;;16.50;99.90;;;;;;4914783;28;20565;-72
2023/10/13 04:36:13;;;;;;;25.42;19.13;;;16.50;99.90;;;;;;4914809;28;20039;-72
2023/10/13 04:38:57;;;;;;;21.75;19.45;;;16.40;99.90;;;;;;4936099;28;20050;-72
2023/10/13 06:30:06;;;;;;;35.95;23.08;;;15.70;99.90;;;;;;4938859;28;20298;-72
2023/10/13 06:32:33;;;;;;;33.58;23.58;;;15.70;99.90;;;;;;4934242;28;20067;-70
2023/10/13 06:35:22;;;;;;;36.70;26.10;;;15.70;99.90;;;;;;4937775;28;20133;-71
2023/10/13 06:37:51;;;;;;;45.50;25.73;;;15.70;99.90;;;;;;4935694;28;20106;-70
2023/10/13 06:40:33;;;;;;;39.05;26.08;;;15.70;99.90;;;;;;4933002;28;20573;-69
2023/10/13 06:43:16;;;;;;;33.38;22.33;;;15.70;99.90;;;;;;4936119;28;20152;-69
2023/10/13 06:46:00;;;;;;;43.55;26.85;;;15.70;99.90;;;;;;4917871;28;20102;-70
2023/10/13 06:48:27;;;;;;;39.72;27.15;;;15.70;99.90;;;;;;4935277;28;20065;-69
2023/10/13 06:51:03;;;;;;;39.50;25.88;;;15.70;99.90;;;;;;4938228;28;20051;-69
2023/10/13 06:53:36;;;;;;;40.60;26.77;;;15.70;99.90;;;;;;4913875;28;20053;-69
2023/10/13 06:56:06;;;;;;;51.65;27.88;;;15.70;99.90;;;;;;4933689;28;20055;-69
2023/10/13 06:58:35;;;;;;;41.47;26.85;;;15.70;99.90;;;;;;4935265;28;20078;-72
2023/10/13 07:01:07;;;;;;;45.80;27.40;;;15.80;99.90;;;;;;4918620;28;20694;-72
2023/10/13 07:03:34;;;;;;;37.75;27.02;;;15.80;99.90;;;;;;4920020;28;20051;-71
2023/10/13 07:06:06;;;;;;;38.25;26.13;;;15.80;99.90;;;;;;4934865;28;20039;-72
2023/10/13 07:08:38;;;;;;;41.38;26.92;;;15.80;99.90;;;;;;4915167;28;20080;-72
2023/10/13 07:11:05;;;;;;;38.80;26.13;;;15.80;99.90;;;;;;4919429;28;20044;-72
2023/10/13 07:13:37;;;;;;;38.42;26.13;;;15.90;99.90;;;;;;4919272;28;20078;-72
2023/10/13 07:16:12;;;;;;;41.08;26.15;;;15.80;99.90;;;;;;4927223;28;20182;-71
2023/10/13 07:18:55;;;;;;;42.38;29.33;;;15.90;99.90;;;;;;4920294;28;20133;-70
2023/10/13 07:21:30;;;;;;;42.25;28.73;;;15.90;99.90;;;;;;4934795;28;20101;-72
2023/10/13 07:24:10;;;;;;;42.22;28.67;;;15.90;99.90;;;;;;4937554;28;20166;-72
2023/10/13 07:26:42;;;;;;;51.00;29.45;;;16.00;99.90;;;;;;4912104;28;20874;-71
2023/10/13 07:29:10;;;;;;;49.00;30.63;;;16.00;99.90;;;;;;4919215;28;20079;-72
2023/10/13 07:31:39;;;;;;;42.60;27.40;;;16.10;99.90;;;;;;4916936;28;20051;-71
2023/10/13 07:34:12;;;;;;;38.60;25.67;;;16.10;99.90;;;;;;4938962;28;20583;-72
2023/10/13 07:36:43;;;;;;;37.05;23.70;;;16.10;99.90;;;;;;4919508;28;20067;-71
2023/10/13 07:39:21;;;;;;;38.03;26.35;;;16.20;99.90;;;;;;4916899;28;20493;-72
2023/10/13 07:42:03;;;;;;;29.77;23.73;;;16.20;99.90;;;;;;4916184;28;20134;-71
2023/10/13 07:44:34;;;;;;;26.88;19.77;;;16.30;99.90;;;;;;4934982;28;20406;-72
2023/10/13 07:47:03;;;;;;;27.92;19.33;;;16.40;99.90;;;;;;4934803;28;20047;-71
2023/10/13 07:49:32;;;;;;;20.20;15.95;;;16.40;99.90;;;;;;4934831;28;20047;-70
2023/10/13 07:52:06;;;;;;;28.85;18.35;;;16.50;99.90;;;;;;4934305;28;20075;-71
2023/10/13 07:54:34;;;;;;;20.13;13.90;;;16.60;99.90;;;;;;4935554;28;20058;-71
2023/10/13 07:57:07;;;;;;;20.08;14.18;;;16.50;99.90;;;;;;4936233;28;20051;-71
2023/10/13 07:59:47;;;;;;;18.92;14.38;;;16.70;99.90;;;;;;4922499;28;20051;-72
2023/10/13 08:02:33;;;;;;;19.30;13.82;;;16.70;99.90;;;;;;4937517;28;20134;-70
2023/10/13 08:05:00;;;;;;;17.55;12.43;;;16.80;99.90;;;;;;4923629;28;20063;-72
2023/10/13 08:07:28;;;;;;;13.90;9.85;;;16.80;99.90;;;;;;4921560;28;20051;-72
2023/10/13 08:09:57;;;;;;;16.35;9.60;;;16.80;99.90;;;;;;4939181;28;20047;-73
2023/10/13 08:12:25;;;;;;;14.48;8.43;;;17.00;99.90;;;;;;4922623;28;20046;-72
2023/10/13 08:15:09;;;;;;;12.32;9.10;;;17.10;99.90;;;;;;4933549;28;20150;-72
2023/10/13 08:17:36;;;;;;;13.23;8.00;;;17.20;99.90;;;;;;4913255;28;20612;-72
2023/10/13 08:20:12;;;;;;;11.48;7.18;;;17.30;99.90;;;;;;4938472;28;20050;-72
2023/10/13 08:22:46;;;;;;;11.60;6.57;;;17.40;99.90;;;;;;4915892;28;20079;-70
2023/10/13 08:26:29;;;;;;;9.85;6.60;;;17.50;99.90;;;;;;4938719;28;20093;-73
2023/10/13 08:31:23;;;;;;;11.63;6.28;;;17.80;99.90;;;;;;4937160;28;20085;-72
2023/10/13 08:33:50;;;;;;;7.40;5.78;;;17.90;99.90;;;;;;4897782;28;20110;-70
2023/10/13 08:36:29;;;;;;;7.93;6.70;;;18.00;99.90;;;;;;4926955;28;20061;-72
2023/10/13 08:38:57;;;;;;;8.88;7.82;;;18.10;99.90;;;;;;4919515;28;20035;-73
2023/10/13 08:43:51;;;;;;;11.90;7.32;;;18.20;99.90;;;;;;4935014;28;20126;-72
2023/10/13 08:46:29;;;;;;;9.93;7.80;;;18.20;99.90;;;;;;4917286;28;20419;-73
2023/10/13 08:49:06;;;;;;;11.73;8.43;;;18.30;99.90;;;;;;4932464;28;20047;-72
2023/10/13 08:51:45;;;;;;;10.77;8.80;;;18.30;99.90;;;;;;4933858;28;20533;-72
2023/10/13 08:54:38;;;;;;;11.07;9.05;;;18.40;99.90;;;;;;4921602;28;20054;-73
2023/10/13 08:57:32;;;;;;;11.95;9.38;;;18.50;99.90;;;;;;4919595;28;20098;-70
2023/10/13 08:59:55;;;;;;;14.40;10.00;;;18.50;99.90;;;;;;4920354;28;20114;-71
2023/10/13 09:02:59;;;;;;;13.88;10.93;;;18.50;99.90;;;;;;4933785;28;20051;-68
2023/10/13 09:05:41;;;;;;;18.67;11.32;;;18.60;99.90;;;;;;4935181;28;20107;-72
2023/10/13 09:08:07;;;;;;;18.85;11.65;;;18.60;99.90;;;;;;4933160;28;20051;-71
2023/10/13 09:10:44;;;;;;;19.08;11.98;;;18.70;99.90;;;;;;4931483;28;20541;-71
2023/10/13 09:13:20;;;;;;;15.57;12.75;;;18.70;99.90;;;;;;4936118;28;20134;-72
2023/10/13 09:15:59;;;;;;;21.00;12.40;;;18.80;99.90;;;;;;4912866;29;20054;-71
2023/10/13 09:21:43;;;;;;;15.98;13.52;;;19.00;99.90;;;;;;4922911;28;20039;-72
2023/10/13 09:26:53;;;;;;;20.23;15.98;;;19.30;99.90;;;;;;4931498;28;20039;-71
2023/10/13 09:29:21;;;;;;;20.88;15.65;;;19.30;99.90;;;;;;4920191;28;20478;-72
2023/10/13 09:32:02;;;;;;;18.60;16.83;;;19.30;99.90;;;;;;4930676;28;20042;-72
2023/10/13 09:34:33;;;;;;;21.90;17.77;;;19.30;99.90;;;;;;4932576;28;20043;-71
2023/10/13 09:37:03;;;;;;;27.83;19.00;;;19.30;99.90;;;;;;4918418;28;20045;-71
2023/10/13 09:39:34;;;;;;;21.08;18.77;;;19.30;99.90;;;;;;4927733;28;20192;-72
2023/10/13 09:42:03;;;;;;;25.15;19.02;;;19.40;99.90;;;;;;4899174;28;20678;-71
2023/10/13 09:44:31;;;;;;;22.30;18.40;;;19.50;99.90;;;;;;4929463;28;20039;-72
2023/10/13 09:47:07;;;;;;;23.63;20.05;;;19.70;99.90;;;;;;4903611;28;20569;-73
2023/10/13 09:49:45;;;;;;;24.73;21.70;;;19.80;99.90;;;;;;4935140;28;20079;-72
2023/10/13 09:52:19;;;;;;;26.58;21.17;;;20.00;99.90;;;;;;4920124;28;20048;-72
2023/10/13 09:55:02;;;;;;;28.17;25.48;;;20.10;99.90;;;;;;4915485;28;21158;-73
2023/10/13 09:57:34;;;;;;;25.33;22.63;;;20.10;99.90;;;;;;4930653;28;20450;-73
2023/10/13 10:01:06;;;;;;;30.40;23.63;;;20.00;99.90;;;;;;4912067;28;20047;-72
2023/10/13 10:03:14;;;;;;;28.60;23.60;;;20.20;99.90;;;;;;4924198;28;21396;-73
2023/10/13 10:05:49;;;;;;;26.98;24.13;;;20.30;99.90;;;;;;4914492;28;20121;-72
2023/10/13 10:08:33;;;;;;;24.73;22.42;;;20.50;99.90;;;;;;4923108;28;20039;-73
2023/10/13 10:11:07;;;;;;;26.70;22.23;;;20.50;99.90;;;;;;4915322;28;20051;-73
2023/10/13 10:13:57;;;;;;;26.33;23.75;;;20.80;99.90;;;;;;4932171;28;20307;-73
2023/10/13 10:17:07;;;;;;;27.17;25.00;;;20.90;99.90;;;;;;4932281;28;20070;-73
2023/10/13 10:19:57;;;;;;;26.42;24.08;;;21.00;99.90;;;;;;4908016;28;20054;-73
2023/10/13 10:22:36;;;;;;;25.00;22.63;;;21.10;99.90;;;;;;4918140;28;20506;-73
2023/10/13 10:25:14;;;;;;;25.60;22.88;;;21.20;99.90;;;;;;4932457;28;20159;-73
2023/10/13 10:27:41;;;;;;;26.25;23.55;;;21.20;99.90;;;;;;4936995;28;20063;-74
2023/10/13 10:30:13;;;;;;;31.38;24.63;;;21.40;99.90;;;;;;4901115;28;20047;-73
2023/10/13 10:32:41;;;;;;;26.65;23.90;;;21.50;99.90;;;;;;4916430;28;20055;-73
2023/10/13 10:35:20;;;;;;;25.05;22.83;;;21.50;99.90;;;;;;4933037;28;20445;-72
2023/10/13 10:37:48;;;;;;;26.75;24.50;;;21.50;99.90;;;;;;4933488;28;20085;-75
2023/10/13 10:43:17;;;;;;;29.27;26.65;;;21.80;99.90;;;;;;4907465;28;20094;-73
2023/10/13 10:46:01;;;;;;;27.92;25.67;;;21.90;99.90;;;;;;4920670;28;20110;-73
2023/10/13 10:48:34;;;;;;;30.60;25.42;;;21.90;99.90;;;;;;4936400;28;20047;-72
2023/10/13 10:51:14;;;;;;;28.13;25.55;;;21.90;99.90;;;;;;4916749;28;20050;-72
2023/10/13 10:53:44;;;;;;;28.10;25.70;;;21.90;99.90;;;;;;4936463;28;20046;-73
2023/10/13 10:59:02;;;;;;;30.98;25.80;;;21.90;99.90;;;;;;4920790;28;20050;-73
2023/10/13 11:01:46;;;;;;;30.08;26.67;;;22.00;99.90;;;;;;4934221;28;20042;-71
2023/10/13 11:04:14;;;;;;;29.55;26.60;;;22.00;99.90;;;;;;4938857;28;20043;-73
2023/10/13 11:06:47;;;;;;;29.85;26.83;;;22.10;99.90;;;;;;4919053;28;20051;-73
2023/10/13 11:11:54;;;;;;;29.15;26.77;;;22.10;99.90;;;;;;4935191;28;20047;-72
2023/10/13 11:14:28;;;;;;;29.15;25.77;;;22.20;99.90;;;;;;4939595;28;20130;-72
2023/10/13 11:17:00;;;;;;;30.30;27.10;;;22.30;99.90;;;;;;4939872;28;20055;-73
2023/10/13 11:19:38;;;;;;;28.67;25.85;;;22.30;99.90;;;;;;4938856;28;20110;-72
2023/10/13 11:25:11;;;;;;;29.90;25.23;;;22.40;99.90;;;;;;4922323;28;20074;-72
2023/10/13 11:28:06;;;;;;;28.67;25.58;;;22.40;99.90;;;;;;4941684;28;20075;-73
2023/10/13 11:33:08;;;;;;;26.85;24.60;;;22.40;99.90;;;;;;4935411;28;20047;-73
2023/10/13 11:35:49;;;;;;;27.73;24.88;;;22.40;99.90;;;;;;4923290;28;20769;-73
2023/10/13 11:38:25;;;;;;;28.00;25.27;;;22.30;99.90;;;;;;4904667;28;20047;-73
2023/10/13 11:48:38;;;;;;;34.95;25.38;;;22.30;99.90;;;;;;4922309;28;20107;-73
2023/10/13 11:51:31;;;;;;;27.90;25.02;;;22.40;99.90;;;;;;4938840;28;20059;-74
2023/10/13 11:54:06;;;;;;;28.55;25.90;;;22.30;99.90;;;;;;4919284;28;20051;-73
2023/10/13 11:56:39;;;;;;;28.27;25.27;;;22.30;99.90;;;;;;4934983;28;20058;-73
2023/10/13 11:59:05;;;;;;;28.23;25.52;;;22.30;99.90;;;;;;4924818;28;20039;-73
2023/10/13 12:12:23;;;;;;;32.72;26.73;;;22.70;99.90;;;;;;4929786;28;20134;-74
2023/10/13 12:14:54;;;;;;;28.80;25.85;;;22.60;99.90;;;;;;4916321;28;20055;-74
2023/10/13 12:17:39;;;;;;;32.40;27.27;;;22.50;99.90;;;;;;4927582;28;20170;-73
2023/10/13 12:20:10;;;;;;;;;;;22.60;99.90;;;;;;4935866;28;20039;-74
2023/10/13 12:22:51;;;;;;;33.70;25.92;;;22.70;99.90;;;;;;4902990;28;19926;-73
2023/10/13 12:25:24;;;;;;;33.30;26.48;;;22.70;99.90;;;;;;4917352;28;20054;-75
2023/10/13 12:28:06;;;;;;;31.60;26.55;;;22.60;99.90;;;;;;4920435;28;20074;-75
2023/10/13 12:30:48;;;;;;;30.25;26.52;;;22.60;99.90;;;;;;4920587;29;20122;-73
2023/10/13 12:33:26;;;;;;;31.00;26.70;;;22.60;99.90;;;;;;4918077;28;20134;-74
2023/10/13 12:36:06;;;;;;;27.65;24.80;;;22.50;99.90;;;;;;4919729;28;20048;-73
2023/10/13 12:52:16;;;;;;;29.67;26.38;;;22.20;99.90;;;;;;4910270;28;20073;-74
2023/10/13 12:55:29;;;;;;;30.35;26.00;;;22.20;99.90;;;;;;4919367;28;20358;-75
2023/10/13 12:57:32;;;;;;;28.15;25.15;;;22.30;99.90;;;;;;4921749;28;20043;-75
2023/10/13 12:59:59;;;;;;;32.03;25.42;;;22.30;99.90;;;;;;4920684;28;20031;-74
2023/10/13 13:02:26;;;;;;;28.77;25.77;;;22.20;99.90;;;;;;4936941;28;20062;-75
2023/10/13 13:05:01;;;;;;;27.88;25.42;;;22.20;99.90;;;;;;4934103;28;20405;-75
2023/10/13 13:07:29;;;;;;;28.77;25.95;;;22.10;99.90;;;;;;4932862;28;20043;-75
2023/10/13 13:10:00;;;;;;;29.85;26.88;;;22.10;99.90;;;;;;4914122;28;20158;-74
2023/10/13 13:12:29;;;;;;;33.40;27.17;;;22.10;99.90;;;;;;4938859;28;20110;-75
2023/10/13 13:14:56;;;;;;;29.30;26.33;;;22.10;99.90;;;;;;4919282;28;20074;-76
2023/10/13 13:17:23;;;;;;;30.83;27.58;;;22.00;99.90;;;;;;4920910;28;21646;-75
2023/10/13 13:19:50;;;;;;;29.25;26.15;;;22.00;99.90;;;;;;4937102;28;20169;-74
2023/10/13 13:22:17;;;;;;;28.45;25.88;;;22.00;99.90;;;;;;4935066;28;20047;-74
2023/10/13 13:25:25;;;;;;;31.35;26.27;;;21.90;99.90;;;;;;4935869;28;20062;-75
2023/10/13 13:27:52;;;;;;;31.23;27.65;;;22.00;99.90;;;;;;4918442;28;20055;-76
2023/10/13 13:30:19;;;;;;;28.90;25.30;;;22.00;99.90;;;;;;4933218;28;20047;-73
2023/10/13 13:32:47;;;;;;;28.77;26.17;;;22.10;99.90;;;;;;4932490;28;20054;-74
2023/10/13 13:35:16;;;;;;;28.83;26.17;;;22.00;99.90;;;;;;4934558;28;20765;-75
2023/10/13 13:37:44;;;;;;;27.77;24.95;;;22.00;99.90;;;;;;4918205;28;20055;-74
2023/10/13 13:40:15;;;;;;;28.25;25.58;;;22.10;99.90;;;;;;4916337;28;20086;-74
2023/10/13 13:42:43;;;;;;;28.08;24.75;;;22.10;99.90;;;;;;4930987;28;20054;-74
2023/10/13 13:45:32;;;;;;;28.77;25.23;;;22.10;99.90;;;;;;4915538;28;20117;-74
2023/10/13 13:47:58;;;;;;;27.75;24.95;;;22.10;99.90;;;;;;4903391;28;20043;-74
2023/10/13 13:50:28;;;;;;;32.17;25.83;;;22.30;99.90;;;;;;4923485;28;20069;-74
2023/10/13 13:52:57;;;;;;;30.13;25.77;;;22.50;99.90;;;;;;4917818;28;20051;-73
2023/10/13 13:55:28;;;;;;;27.23;24.63;;;22.70;99.90;;;;;;4936044;28;20576;-73
2023/10/13 13:57:57;;;;;;;26.52;23.75;;;22.70;99.90;;;;;;4905204;28;20051;-73
2023/10/13 14:00:46;;;;;;;26.35;23.23;;;22.60;99.90;;;;;;4919098;28;20055;-73
2023/10/13 14:03:30;;;;;;;28.50;23.90;;;22.40;99.90;;;;;;4919484;28;20039;-73
2023/10/13 14:05:59;;;;;;;26.83;24.48;;;22.30;99.90;;;;;;4936357;28;21247;-73
2023/10/13 14:08:27;;;;;;;30.55;24.73;;;22.20;99.90;;;;;;4940207;28;20051;-74
2023/10/13 14:13:49;;;;;;;27.83;24.52;;;22.20;99.90;;;;;;4931593;28;20111;-74
2023/10/13 14:16:17;;;;;;;31.60;26.55;;;22.20;99.90;;;;;;4938868;28;20134;-74
2023/10/13 14:18:49;;;;;;;29.13;23.35;;;22.20;99.90;;;;;;4933120;28;20075;-72
2023/10/13 14:21:24;;;;;;;27.08;23.90;;;22.20;99.90;;;;;;4932000;28;20058;-74
2023/10/13 14:23:53;;;;;;;28.42;25.02;;;22.20;99.90;;;;;;4905371;28;20047;-74
2023/10/13 14:26:21;;;;;;;28.42;24.92;;;22.20;99.90;;;;;;4924791;28;20042;-74
2023/10/13 14:29:13;;;;;;;27.15;24.42;;;22.20;99.90;;;;;;4926722;28;20134;-75
2023/10/13 14:31:39;;;;;;;29.42;25.60;;;22.20;99.90;;;;;;4939196;28;20535;-75
2023/10/13 14:34:09;;;;;;;26.58;23.98;;;22.30;99.90;;;;;;4946397;28;20486;-75
2023/10/13 14:36:36;;;;;;;29.20;23.88;;;22.30;99.90;;;;;;4921558;28;20105;-75
2023/10/13 14:39:09;;;;;;;29.10;24.42;;;22.30;99.90;;;;;;4937856;28;20478;-73
2023/10/13 14:41:37;;;;;;;26.40;23.90;;;22.30;99.90;;;;;;4937829;28;20047;-75
2023/10/13 14:44:07;;;;;;;35.35;24.25;;;22.20;99.90;;;;;;4935592;28;20498;-75
2023/10/13 14:46:40;;;;;;;33.47;25.17;;;22.20;99.90;;;;;;4937395;28;20051;-75
2023/10/13 14:49:08;;;;;;;27.98;23.95;;;22.10;99.90;;;;;;4927233;28;20113;-76
2023/10/13 14:51:39;;;;;;;31.52;24.48;;;22.10;99.90;;;;;;4921484;28;20139;-73
2023/10/13 14:54:06;;;;;;;29.23;24.48;;;22.10;99.90;;;;;;4923467;28;20082;-73
2023/10/13 14:56:33;;;;;;;28.00;24.75;;;22.10;99.90;;;;;;4939195;28;20047;-73
2023/10/13 14:59:00;;;;;;;27.73;24.83;;;22.00;99.90;;;;;;4920615;28;20051;-74
2023/10/13 15:01:26;;;;;;;27.67;25.05;;;22.00;99.90;;;;;;4923059;28;20047;-74
2023/10/13 15:03:57;;;;;;;28.95;25.33;;;22.00;99.90;;;;;;4935638;28;20035;-73
2023/10/13 15:06:29;;;;;;;27.20;24.60;;;21.90;99.90;;;;;;4920235;28;20343;-74
2023/10/13 15:08:59;;;;;;;27.80;24.58;;;21.80;99.90;;;;;;4940302;28;20046;-74
2023/10/13 15:11:35;;;;;;;28.92;24.80;;;21.80;99.90;;;;;;4918683;28;20238;-73
2023/10/13 15:14:14;;;;;;;27.10;24.70;;;21.80;99.90;;;;;;4924292;28;20047;-74
2023/10/13 15:16:42;;;;;;;28.30;25.50;;;21.70;99.90;;;;;;4920357;28;20089;-75
2023/10/13 15:19:11;;;;;;;33.08;25.77;;;21.70;99.90;;;;;;4922488;28;20043;-74
2023/10/13 15:21:40;;;;;;;32.17;26.15;;;21.70;99.90;;;;;;4922479;28;20055;-74
2023/10/13 15:24:14;;;;;;;29.52;25.42;;;21.70;99.90;;;;;;4920618;28;20039;-75
2023/10/13 15:26:47;;;;;;;28.30;25.58;;;21.70;99.90;;;;;;4931708;28;20048;-75
2023/10/13 15:29:16;;;;;;;29.63;26.67;;;21.70;99.90;;;;;;4920631;28;20047;-74
2023/10/13 15:34:28;;;;;;;34.50;25.98;;;21.70;99.90;;;;;;4939182;28;20085;-75
2023/10/13 15:36:57;;;;;;;27.65;24.67;;;21.60;99.90;;;;;;4918567;28;20054;-75
2023/10/13 15:39:28;;;;;;;35.05;25.70;;;21.60;99.90;;;;;;4921846;28;20502;-75
2023/10/13 15:42:02;;;;;;;34.47;25.15;;;21.60;99.90;;;;;;4934610;28;20042;-74
2023/10/13 15:44:31;;;;;;;28.75;25.75;;;21.60;99.90;;;;;;4932718;28;20098;-75
2023/10/13 15:47:12;;;;;;;26.45;23.98;;;21.50;99.90;;;;;;4917047;28;20079;-73
2023/10/13 15:49:42;;;;;;;27.88;24.90;;;21.50;99.90;;;;;;4907065;28;20085;-73
2023/10/13 15:52:09;;;;;;;26.63;22.95;;;21.50;99.90;;;;;;4936900;28;20436;-73
2023/10/13 15:54:36;;;;;;;27.10;22.30;;;21.60;99.90;;;;;;4905188;28;20094;-73
2023/10/13 15:57:06;;;;;;;24.83;22.30;;;21.50;99.90;;;;;;4917331;28;22830;-73
2023/10/13 15:59:34;;;;;;;28.77;23.15;;;21.50;99.90;;;;;;4919468;28;20040;-74
2023/10/13 16:02:03;;;;;;;30.65;24.23;;;21.60;99.90;;;;;;4934741;28;20039;-73
2023/10/13 16:04:30;;;;;;;29.95;22.83;;;21.60;99.90;;;;;;4941332;28;20066;-72
2023/10/13 16:06:57;;;;;;;30.33;22.67;;;21.60;99.90;;;;;;4935836;28;20153;-73
2023/10/13 16:09:25;;;;;;;30.83;22.45;;;21.60;99.90;;;;;;4939260;28;20109;-73
2023/10/13 16:11:53;;;;;;;25.17;22.55;;;21.50;99.90;;;;;;4917518;28;20134;-72
2023/10/13 16:14:21;;;;;;;29.73;24.25;;;21.60;99.90;;;;;;4942495;28;20057;-73
2023/10/13 16:16:50;;;;;;;30.65;23.98;;;21.50;99.90;;;;;;4917380;28;20054;-72
2023/10/13 16:19:21;;;;;;;27.70;22.98;;;21.50;99.90;;;;;;4919460;28;21497;-73